Latest Weather Observations for Stenhouse Bay

IDS60801

Issued at 6:21 am CDT Tuesday 7 December 2021 (issued every 10 minutes, with the page automatically refreshed every 10 minutes)

About weather observations | Map of weather stations | Latest weather observations for SA | Other Formats
Station Details ID: 022049 Name: STENHOUSE BAY Lat: -35.28 Lon: 136.94 Height: 42.0 m
Data from the previous 72 hours. | See also: Recent months at Stenhouse Bay
Date/Time
CDT
Temp
°C
App
Temp
°C
Dew
Point
°C
Rel
Hum
%
Delta-T
°C
Wind Press
QNH
hPa
Press
MSL
hPa
Rain since
9am
mm
Dir  Spd
km/h
Gust
km/h
Spd
kts
Gust
kts
07/06:00am 13.6 8.5 6.2 61 3.5 S 22 30 12 16 1015.9 1015.8 0.0
07/05:30am 13.6 8.2 6.2 61 3.5 S 24 32 13 17 1015.7 1015.6 0.0
07/05:00am 14.0 8.3 6.8 62 3.5 S 26 33 14 18 1015.4 1015.3 0.0
07/04:30am 14.1 7.3 6.9 62 3.5 S 32 39 17 21 1015.2 1015.1 0.0
07/04:00am 14.3 8.4 7.6 64 3.3 S 28 35 15 19 1014.9 1014.8 0.0
07/03:30am 14.2 8.5 8.2 67 3.0 S 28 35 15 19 1015.0 1014.9 0.0
07/03:00am 14.5 10.6 9.5 72 2.6 S 20 26 11 14 1014.9 1014.8 0.0
07/02:30am 14.6 9.6 9.4 71 2.7 S 26 35 14 19 1014.9 1014.8 0.0
07/02:00am 14.6 9.8 10.2 75 2.3 S 26 33 14 18 1014.9 1014.8 0.0
07/01:30am 14.7 10.1 10.9 78 2.0 S 26 32 14 17 1014.8 1014.7 0.0
07/01:00am 14.7 11.4 11.7 82 1.6 SSW 20 30 11 16 1014.9 1014.8 0.0
07/12:30am 15.0 10.8 11.0 77 2.1 SSW 24 35 13 19 1015.0 1014.9 0.0
07/12:00am 15.4 11.9 10.8 74 2.4 SSW 20 28 11 15 1014.9 1014.8 0.0
 
Date/Time
CDT
Temp
°C
App
Temp
°C
Dew
Point
°C
Rel
Hum
%
Delta-T
°C
Wind Press
QNH
hPa
Press
MSL
hPa
Rain since
9am
mm
Dir  Spd
km/h
Gust
km/h
Spd
kts
Gust
kts
06/11:30pm 15.5 11.5 10.5 72 2.6 SSW 22 33 12 18 1015.0 1014.9 0.0
06/11:00pm 15.3 10.8 9.9 70 2.8 SSW 24 37 13 20 1014.9 1014.8 0.0
06/10:30pm 15.7 12.3 10.5 71 2.7 SSW 19 32 10 17 1014.9 1014.8 0.0
06/10:00pm 15.4 12.0 10.6 73 2.5 SSW 19 28 10 15 1014.6 1014.5 0.0
06/09:30pm 15.5 12.2 10.9 74 2.4 SSW 19 32 10 17 1014.3 1014.2 0.0
06/09:00pm 15.2 11.7 10.2 72 2.6 SW 19 30 10 16 1014.2 1014.1 0.0
06/08:30pm 15.6 12.2 10.6 72 2.6 SSW 19 28 10 15 1014.2 1014.1 0.0
06/08:00pm 15.8 11.6 11.2 74 2.5 SW 24 33 13 18 1014.0 1013.9 0.0
06/07:30pm 16.2 11.7 10.1 67 3.2 SW 24 32 13 17 1013.7 1013.6 0.0
06/07:00pm 17.0 12.8 9.9 63 3.7 SW 22 32 12 17 1013.4 1013.3 0.0
06/06:30pm 17.6 13.3 9.2 58 4.4 SW 22 32 12 17 1013.1 1013.0 0.0
06/06:00pm 17.8 12.3 9.2 57 4.5 SW 28 37 15 20 1012.8 1012.7 0.0
06/05:30pm 18.5 13.0 9.3 55 4.8 SW 28 35 15 19 1012.9 1012.8 0.0
06/05:00pm 18.6 13.9 9.4 55 4.8 SW 24 33 13 18 1012.9 1012.8 0.0
06/04:30pm 18.7 13.4 9.8 56 4.7 SW 28 37 15 20 1013.0 1012.9 0.0
06/04:00pm 18.5 13.6 10.1 58 4.5 SW 26 33 14 18 1013.1 1013.0 0.0
06/03:30pm 19.6 15.0 10.9 57 4.7 SW 26 37 14 20 1013.2 1013.1 0.0
06/03:00pm 19.7 15.9 11.2 58 4.7 SW 22 30 12 16 1013.2 1013.1 0.0
06/02:30pm 19.3 15.0 10.6 57 4.7 SW 24 32 13 17 1013.4 1013.3 0.0
06/02:00pm 19.5 15.6 10.8 57 4.7 SW 22 30 12 16 1013.3 1013.2 0.0
06/01:30pm 19.4 14.2 10.1 55 5.0 SW 28 33 15 18 1013.6 1013.5 0.0
06/01:00pm 19.6 14.8 10.3 55 5.0 SW 26 32 14 17 1013.5 1013.4 0.0
06/12:30pm 19.1 14.2 9.9 55 4.9 SW 26 35 14 19 1013.6 1013.5 0.0
06/12:00pm 19.0 14.4 9.8 55 4.9 SW 24 33 13 18 1013.8 1013.7 0.0
06/11:30am 18.6 13.9 10.7 60 4.3 SW 26 33 14 18 1013.9 1013.8 0.0
06/11:00am 18.4 15.1 10.8 61 4.1 SW 19 24 10 13 1013.7 1013.6 0.0
06/10:30am 17.6 16.1 10.7 64 3.7 SSW 9 13 5 7 1013.5 1013.4 0.0
06/10:00am 17.8 15.5 10.4 62 4.0 SSW 13 19 7 10 1014.0 1013.9 0.0
06/09:30am 17.6 15.4 10.9 65 3.6 SSW 13 20 7 11 1014.2 1014.1 0.0
06/09:00am 17.2 16.3 11.2 68 3.2 SE 7 13 4 7 1013.6 1013.5 0.0
06/08:30am 16.5 14.7 10.8 69 3.0 SSE 11 15 6 8 1013.5 1013.4 0.0
06/08:00am 16.6 14.9 11.3 71 2.9 SE 11 17 6 9 1013.3 1013.2 0.0
06/07:30am 15.7 12.7 10.7 72 2.7 SE 17 20 9 11 1012.9 1012.8 0.0
06/07:00am 14.9 12.3 10.7 76 2.2 SE 15 20 8 11 1012.9 1012.8 0.0
06/06:30am 14.3 11.3 10.7 79 1.9 SSE 17 20 9 11 1013.0 1012.9 0.0
06/06:00am 14.0 10.4 10.6 80 1.8 SSE 20 24 11 13 1013.0 1012.9 0.0
06/05:30am 14.0 11.0 10.6 80 1.8 SSE 17 22 9 12 1012.8 1012.7 0.0
06/05:00am 13.9 10.5 10.5 80 1.8 SSE 19 24 10 13 1012.7 1012.6 0.0
06/04:30am 14.0 10.0 10.4 79 1.9 SSE 22 26 12 14 1013.0 1012.9 0.0
06/04:00am 14.2 9.9 10.8 80 1.8 SSE 24 28 13 15 1013.3 1013.2 0.0
06/03:30am 14.2 10.8 10.6 79 1.9 SSE 19 24 10 13 1013.5 1013.4 0.0
06/03:00am 14.0 11.4 10.8 81 1.7 SSE 15 17 8 9 1013.6 1013.5 0.0
06/02:30am 14.1 11.8 10.5 79 1.9 SE 13 17 7 9 1014.0 1013.9 0.0
06/02:00am 14.2 11.2 10.6 79 1.9 SE 17 20 9 11 1014.4 1014.3 0.0
06/01:30am 14.3 10.3 10.3 77 2.1 ESE 22 28 12 15 1014.4 1014.3 0.0
06/01:00am 14.4 10.1 10.6 78 2.0 SE 24 30 13 16 1014.6 1014.5 0.0
06/12:30am 14.4 9.6 10.2 76 2.2 SE 26 32 14 17 1014.8 1014.7 0.0
06/12:00am 14.5 10.1 10.5 77 2.1 ESE 24 30 13 16 1015.2 1015.1 0.0
 
Date/Time
CDT
Temp
°C
App
Temp
°C
Dew
Point
°C
Rel
Hum
%
Delta-T
°C
Wind Press
QNH
hPa
Press
MSL
hPa
Rain since
9am
mm
Dir  Spd
km/h
Gust
km/h
Spd
kts
Gust
kts
05/11:30pm 14.5 9.3 10.3 76 2.2 ESE 28 33 15 18 1015.2 1015.1 0.0
05/11:00pm 14.5 8.8 9.9 74 2.4 ESE 30 35 16 19 1015.6 1015.5 0.0
05/10:30pm 14.6 9.3 9.8 73 2.5 ESE 28 33 15 18 1015.7 1015.6 0.0
05/10:00pm 14.7 9.7 9.5 71 2.7 ESE 26 33 14 18 1015.6 1015.5 0.0
05/09:30pm 14.9 10.3 9.5 70 2.8 ESE 24 32 13 17 1015.7 1015.6 0.0
05/09:00pm 15.3 10.7 9.7 69 2.9 SE 24 32 13 17 1015.8 1015.7 0.0
05/08:30pm 15.6 10.6 9.7 68 3.1 ESE 26 32 14 17 1015.7 1015.6 0.0
05/08:00pm 16.3 10.6 9.9 66 3.4 ESE 30 35 16 19 1015.6 1015.5 0.0
05/07:30pm 17.5 12.9 10.9 65 3.6 ESE 26 33 14 18 1015.3 1015.2 0.0
05/07:00pm 17.4 14.3 10.3 63 3.8 E 17 22 9 12 1015.8 1015.7 0.0
05/06:30pm 18.7 17.0 11.3 62 4.0 ESE 11 15 6 8 1015.8 1015.7 0.0
05/06:00pm 18.8 17.1 11.1 61 4.2 SSE 11 15 6 8 1016.0 1015.9 0.0
05/05:30pm 19.2 17.2 11.5 61 4.2 SE 13 17 7 9 1016.2 1016.1 0.0
05/05:00pm 19.1 17.0 11.2 60 4.3 SSE 13 17 7 9 1016.5 1016.4 0.0
05/04:30pm 19.5 16.9 10.8 57 4.7 SSE 15 20 8 11 1016.6 1016.5 0.0
05/04:00pm 19.0 16.7 10.3 57 4.7 SE 13 17 7 9 1016.7 1016.6 0.0
05/03:30pm 19.5 17.4 11.0 58 4.6 SSE 13 17 7 9 1017.1 1017.0 0.0
05/03:00pm 19.4 17.1 10.4 56 4.8 SE 13 19 7 10 1017.6 1017.5 0.0
05/02:30pm 20.4 18.2 10.8 54 5.2 ESE 13 17 7 9 1018.0 1017.9 0.0
05/02:00pm 19.1 16.8 10.4 57 4.7 ESE 13 19 7 10 1018.6 1018.5 0.0
05/01:30pm 20.5 17.3 10.0 51 5.6 E 17 20 9 11 1018.8 1018.7 0.0
05/01:00pm 19.9 16.8 10.3 54 5.2 E 17 22 9 12 1019.1 1019.0 0.0
05/12:30pm 20.4 16.9 10.8 54 5.2 ESE 20 26 11 14 1019.4 1019.3 0.0
05/12:00pm 20.1 16.7 10.5 54 5.2 ESE 19 24 10 13 1019.5 1019.4 0.0
05/11:30am 20.3 16.4 9.5 50 5.7 E 20 28 11 15 1019.7 1019.6 0.0
05/11:00am 17.6 13.8 9.8 60 4.1 E 20 26 11 14 1019.9 1019.8 0.0
05/10:30am 17.6 13.5 10.0 61 4.0 E 22 28 12 15 1020.2 1020.1 0.0
05/10:00am 17.4 14.1 11.0 66 3.5 E 19 26 10 14 1020.6 1020.5 0.0
05/09:30am 17.1 13.4 9.5 61 4.0 E 19 26 10 14 1020.9 1020.8 0.0
05/09:00am 17.8 13.5 9.4 58 4.4 E 22 28 12 15 1021.1 1021.0 0.0
05/08:30am 17.0 13.1 9.4 61 4.0 E 20 26 11 14 1021.3 1021.2 0.0
05/08:00am 16.8 13.4 10.4 66 3.4 ESE 19 24 10 13 1021.1 1021.0 0.0
05/07:30am 16.6 12.3 9.3 62 3.8 E 22 30 12 16 1020.9 1020.8 0.0
05/07:00am 15.2 10.8 8.9 66 3.2 ESE 22 30 12 16 1020.7 1020.6 0.0
05/06:30am 14.9 10.8 8.8 67 3.1 ESE 20 26 11 14 1020.8 1020.7 0.0
05/06:00am 14.7 10.3 8.9 68 2.9 SE 22 33 12 18 1020.7 1020.6 0.0
05/05:30am 14.7 10.3 9.1 69 2.9 SE 22 32 12 17 1020.4 1020.3 0.0
05/05:00am 14.6 10.5 8.8 68 2.9 SE 20 30 11 16 1020.2 1020.1 0.0
05/04:30am 14.4 10.0 8.8 69 2.8 SE 22 32 12 17 1020.2 1020.1 0.0
05/04:00am 14.5 10.1 8.9 69 2.8 SE 22 32 12 17 1020.2 1020.1 0.0
05/03:30am 14.3 8.3 8.7 69 2.8 SE 30 37 16 20 1020.0 1019.9 0.0
05/03:00am 14.2 8.9 8.4 68 2.9 SE 26 32 14 17 1020.5 1020.4 0.0
05/02:30am 14.4 9.3 9.2 71 2.7 SE 26 33 14 18 1020.7 1020.6 0.0
05/02:00am 14.6 9.4 9.0 69 2.9 SE 26 33 14 18 1021.0 1020.9 0.0
05/01:30am 14.4 9.7 9.2 71 2.6 SE 24 35 13 19 1021.2 1021.1 0.0
05/01:00am 14.5 8.6 9.1 70 2.8 SE 30 39 16 21 1021.4 1021.3 0.0
05/12:30am 14.5 9.4 9.1 70 2.7 SE 26 35 14 19 1021.7 1021.6 0.0
05/12:00am 14.6 8.4 9.4 71 2.7 SE 32 39 17 21 1021.9 1021.8 0.0
 
Date/Time
CDT
Temp
°C
App
Temp
°C
Dew
Point
°C
Rel
Hum
%
Delta-T
°C
Wind Press
QNH
hPa
Press
MSL
hPa
Rain since
9am
mm
Dir  Spd
km/h
Gust
km/h
Spd
kts
Gust
kts
04/11:30pm 14.9 9.5 9.5 70 2.8 SE 28 35 15 19 1022.2 1022.1 0.0
04/11:00pm 15.2 10.6 9.6 69 2.9 SE 24 32 13 17 1022.5 1022.4 0.0
04/10:30pm 15.5 11.3 9.8 69 3.0 SE 22 30 12 16 1022.8 1022.7 0.0
04/10:00pm 15.8 11.6 9.7 67 3.2 SSE 22 30 12 16 1022.6 1022.5 0.0
04/09:30pm 16.4 13.7 10.3 67 3.2 ENE 15 20 8 11 1022.1 1022.0 0.0
04/09:00pm 16.6 13.7 10.9 69 3.0 E 17 24 9 13 1021.8 1021.7 0.0
04/08:30pm 16.1 12.0 10.2 68 3.1 S 22 30 12 16 1021.9 1021.8 0.0
04/08:00pm 16.3 12.1 11.2 72 2.7 SSW 24 33 13 18 1022.0 1021.9 0.0
04/07:30pm 16.5 11.8 10.6 68 3.1 SSW 26 35 14 19 1021.9 1021.8 0.0
04/07:00pm 16.9 13.6 11.0 68 3.2 SW 19 30 10 16 1021.9 1021.8 0.0
04/06:30pm 16.9 12.9 10.5 66 3.4 SW 22 32 12 17 1021.7 1021.6 0.0
04/06:00pm 17.5 13.2 10.6 64 3.7 SW 24 32 13 17 1021.8 1021.7 0.0
04/05:30pm 17.8 14.1 10.2 61 4.0 SW 20 28 11 15 1021.8 1021.7 0.0
04/05:00pm 18.7 14.3 10.3 58 4.5 SW 24 30 13 16 1021.7 1021.6 0.0
04/04:30pm 18.1 13.8 9.5 57 4.5 SW 22 30 12 16 1022.1 1022.0 0.0
04/04:00pm 19.4 15.2 9.9 54 5.1 SW 22 28 12 15 1022.5 1022.4 0.0
04/03:30pm 19.1 15.5 10.4 57 4.7 SW 20 28 11 15 1022.7 1022.6 0.0
04/03:00pm 19.0 14.7 9.5 54 5.0 SW 22 30 12 16 1023.3 1023.2 0.0
04/02:30pm 19.9 16.4 10.3 54 5.2 SW 19 24 10 13 1023.4 1023.3 0.0
04/02:00pm 19.6 16.0 10.0 54 5.1 SW 19 28 10 15 1023.4 1023.3 0.0
04/01:30pm 19.8 16.5 9.4 51 5.5 SW 17 22 9 12 1023.7 1023.6 0.0
04/01:00pm 19.8 16.7 8.8 49 5.8 SW 15 20 8 11 1023.9 1023.8 0.0
04/12:30pm 19.7 17.2 8.4 48 5.9 SW 11 17 6 9 1024.3 1024.2 0.0
04/12:00pm 19.0 16.7 7.4 47 5.9 SSW 9 15 5 8 1024.5 1024.4 0.0
04/11:30am 18.5 16.2 7.6 49 5.5 SSW 9 15 5 8 1024.5 1024.4 0.0
04/11:00am 18.3 15.8 8.0 51 5.3 S 11 15 6 8 1024.4 1024.3 0.0
04/10:30am 17.3 14.3 7.9 54 4.8 S 13 17 7 9 1024.0 1023.9 0.0
04/10:00am 17.1 14.0 8.8 58 4.3 SSE 15 19 8 10 1024.0 1023.9 0.0
04/09:30am 16.4 12.5 8.6 60 4.0 S 19 26 10 14 1024.0 1023.9 0.0
04/09:00am 16.0 12.7 8.0 59 4.0 S 15 20 8 11 1024.0 1023.9 0.0
04/08:30am 15.4 11.8 6.9 57 4.2 SSE 15 19 8 10 1024.1 1024.0 0.0
04/08:00am 15.3 11.7 6.8 57 4.2 SSE 15 20 8 11 1023.7 1023.6 0.0
04/07:30am 15.3 10.0 6.8 57 4.1 S 24 32 13 17 1023.3 1023.2 0.0
04/07:00am 14.7 9.9 7.5 62 3.6 S 22 30 12 16 1023.0 1022.9 0.0
04/06:30am 13.9 8.6 6.7 62 3.5 S 24 30 13 16 1022.7 1022.6 0.0

Other formats

Comma delimited format used in spreadsheet applications
http://www.bom.gov.au/fwo/IDS60801/IDS60801.95806.axf

JavaScript Object Notation format (JSON) in row-major order
http://www.bom.gov.au/fwo/IDS60801/IDS60801.95806.json

Data quality

Most of these data are generated automatically and are frequently updated. Quality checks on data are not normally performed. It is possible for incorrect values to appear. Refer to information at About Latest Weather Observations and please check the disclaimer before using these data.